Long Beach, CA

4:20 AM PST on February 20, 2017 (GMT -0800)
Belmont Heights | | Change Station

Elev 82 ft 33.77 °N, 118.15 °W | Updated 2 minutes ago

Overcast
Overcast
54.7 °F
Feels Like 54.7 °F
N
0.6
Wind Variable Wind from SW
Gusts 1.9 mph

Today
High -- | Low -- °F
--% Chance of Precip.
Yesterday
High -- | Low -- °F
Precip. -- in
Pressure 30.18 in
Visibility 10.0 miles
Clouds Overcast 1300 ft
Dew Point 55 °F
Humidity 100%
Rainfall 0.00 in
Snow Depth Not available.
6:31 AM 5:41 PM
Waning Crescent, 34% visible
METAR KLGB 201153Z 11005KT 10SM OVC013 12/11 A3018 RMK AO2 RAE1054 SLP218 P0000 60001 70001 T01220111 10139 20122 58005
Pressure 30.18 in
Visibility 10.0 miles
Clouds Overcast 1300 ft
Dew Point 55 °F
Humidity 100%
Rainfall 0.00 in
Snow Depth Not available.
6:31 AM 5:41 PM
Waning Crescent, 34% visible
METAR KLGB 201153Z 11005KT 10SM OVC013 12/11 A3018 RMK AO2 RAE1054 SLP218 P0000 60001 70001 T01220111 10139 20122 58005

Get Your Daily Forecast Email!

Thanks for signing up!

Be on the lookout for a verification email in your inbox.

You'll start receiving the daily forecast at 8 AM.

×

10-Day Weather Forecast

Almanac

Astronomy

Feb. 20, 2017 Rise Set
Actual Time
Civil Twilight
Nautical Twilight
Astronomical Twilight
Moon
Length of Visible Light
Length of Day
Tomorrow will be .
, % of the Moon is Illuminated

Today's Extremes

State Highs State Lows

Community

WunderPhotos

Upload Photos

1,962,540 photos uploaded!

WunderBlog® & News

Nearby

Air Quality

  Air Quality AQ Index Pollutant
Not available.

Snow Depth

Station Depth Elevation

Earthquake Activity

City Distance Mag. Time & Date
Minimum magnitude displayed is 2.5.

Coastal Water Temperatures

Place Temperature

Stations

Nearby Weather Stations

Station Location Temp. Windchill Dew Point Humidity Wind Precip. Elev Updated Type
                   

Watches & Warnings

There are currently no watches in effect.